Time;durP1;ratioP1;P1;durP2;ratioP2;P2;SDS_P1;SDS_P2;PMS_P1;PMS_P2;Temp;Humidity;BMP_temperature;BMP_pressure;BME280_temperature;BME280_humidity;BME280_pressure;Samples;Min_cycle;Max_cycle;Signal;HPM_P1;HPM_P2
2022/06/24 00:00:42;;;;;;;3.50;2.43;;;;;;;20.95;61.96;101101.03;5011850;28;20223;-73
2022/06/24 00:03:16;;;;;;;2.37;2.17;;;;;;;20.92;62.05;101102.84;5011697;28;20202;-73
2022/06/24 00:05:41;;;;;;;2.60;2.20;;;;;;;20.85;62.46;101106.38;5011408;28;20732;-73
2022/06/24 00:08:07;;;;;;;3.67;2.53;;;;;;;20.89;61.75;101108.94;5012009;28;20270;-73
2022/06/24 00:10:35;;;;;;;3.03;2.10;;;;;;;20.84;62.15;101100.34;5011361;28;20716;-74
2022/06/24 00:13:02;;;;;;;2.77;2.57;;;;;;;20.88;61.90;101104.63;5010539;28;20901;-74
2022/06/24 00:15:30;;;;;;;4.70;2.40;;;;;;;20.81;62.24;101102.13;5011324;28;20234;-73
2022/06/24 00:17:56;;;;;;;3.43;2.10;;;;;;;20.80;62.43;101103.00;5012117;28;20188;-73
2022/06/24 00:20:22;;;;;;;3.87;2.33;;;;;;;20.80;62.10;101100.41;5011626;28;20189;-74
2022/06/24 00:22:52;;;;;;;4.03;2.50;;;;;;;20.81;61.82;101095.19;5011512;28;20211;-73
2022/06/24 00:25:20;;;;;;;3.03;2.43;;;;;;;20.75;61.87;101097.91;5010363;28;20172;-73
2022/06/24 00:28:03;;;;;;;4.47;2.93;;;;;;;20.75;62.07;101091.81;5010791;28;20738;-73
2022/06/24 00:30:34;;;;;;;4.43;2.60;;;;;;;20.72;61.86;101091.88;5011522;28;20225;-73
2022/06/24 00:33:16;;;;;;;3.40;2.17;;;;;;;20.72;61.99;101094.47;5008543;28;21597;-73
2022/06/24 00:35:47;;;;;;;4.77;2.63;;;;;;;20.71;61.61;101088.44;5009662;28;20261;-73
2022/06/24 00:38:28;;;;;;;3.80;2.60;;;;;;;20.70;61.81;101081.50;5011015;28;20176;-73
2022/06/24 00:40:56;;;;;;;2.83;2.63;;;;;;;20.63;61.62;101085.09;5011440;28;20281;-73
2022/06/24 00:43:27;;;;;;;3.30;2.77;;;;;;;20.59;62.04;101093.84;5010621;28;20222;-73
2022/06/24 00:46:08;;;;;;;3.07;2.60;;;;;;;20.55;61.91;101092.16;5011097;28;20191;-73
2022/06/24 00:48:38;;;;;;;10.23;2.60;;;;;;;20.52;61.90;101087.03;5010665;28;20668;-72
2022/06/24 00:51:04;;;;;;;4.50;2.60;;;;;;;20.51;61.96;101080.13;5010014;28;20198;-73
2022/06/24 00:53:30;;;;;;;2.83;2.60;;;;;;;20.49;61.77;101075.84;5011087;28;20211;-73
2022/06/24 00:55:55;;;;;;;4.77;3.03;;;;;;;20.44;62.20;101080.22;5009611;28;20210;-73
2022/06/24 00:58:20;;;;;;;3.43;2.80;;;;;;;20.38;62.70;101075.13;5011317;28;20191;-73
2022/06/24 01:00:48;;;;;;;4.13;2.50;;;;;;;20.31;63.02;101071.78;5014621;28;20187;-73
2022/06/24 01:03:14;;;;;;;3.70;2.43;;;;;;;20.33;62.14;101066.56;4993569;28;20298;-73
2022/06/24 01:05:42;;;;;;;2.97;2.70;;;;;;;20.28;62.66;101070.97;5011076;28;20242;-73
2022/06/24 01:08:10;;;;;;;3.10;2.80;;;;;;;20.24;63.12;101066.69;5023950;28;20312;-73
2022/06/24 01:10:36;;;;;;;2.90;2.70;;;;;;;20.22;63.04;101058.06;5013179;28;20187;-73
2022/06/24 01:13:01;;;;;;;2.80;2.50;;;;;;;20.26;62.68;101059.75;5010779;28;20609;-73
2022/06/24 01:15:27;;;;;;;3.20;2.90;;;;;;;20.23;63.11;101062.38;5015743;28;20211;-73
2022/06/24 01:17:53;;;;;;;2.70;2.50;;;;;;;20.19;63.30;101059.00;5005977;28;20275;-73
2022/06/24 01:20:18;;;;;;;4.53;3.00;;;;;;;20.18;63.11;101053.81;5004726;28;20651;-73
2022/06/24 01:22:44;;;;;;;3.10;2.70;;;;;;;20.16;63.48;101045.16;5029132;28;20221;-73
2022/06/24 01:25:11;;;;;;;3.80;2.87;;;;;;;20.12;63.70;101044.34;5029477;28;20236;-73
2022/06/24 01:27:37;;;;;;;3.13;2.80;;;;;;;20.06;64.01;101038.34;5030208;28;20202;-73
2022/06/24 01:30:04;;;;;;;6.43;3.20;;;;;;;20.05;64.17;101041.84;5018037;28;20211;-73
2022/06/24 01:32:29;;;;;;;3.30;3.00;;;;;;;20.04;64.36;101027.97;5010374;28;20743;-73
2022/06/24 01:34:56;;;;;;;5.90;2.90;;;;;;;20.03;64.27;101025.41;5024579;28;20230;-73
2022/06/24 01:37:25;;;;;;;4.90;2.80;;;;;;;19.99;64.20;101024.59;5029305;28;20194;-73
2022/06/24 01:39:50;;;;;;;3.10;2.80;;;;;;;20.00;64.80;101025.47;5028113;28;20187;-73
2022/06/24 01:42:16;;;;;;;3.57;2.83;;;;;;;19.97;64.73;101023.78;5028876;28;20207;-73
2022/06/24 01:44:42;;;;;;;4.00;3.00;;;;;;;19.93;64.87;101019.50;5029861;28;20240;-74
2022/06/24 01:47:08;;;;;;;4.33;3.23;;;;;;;19.91;65.05;101030.81;5029067;28;20205;-73
2022/06/24 01:49:33;;;;;;;4.17;3.00;;;;;;;19.85;65.12;101026.53;5027985;28;20186;-73
2022/06/24 01:51:59;;;;;;;3.73;3.10;;;;;;;19.81;65.38;101026.63;5011519;28;20333;-73
2022/06/24 01:54:25;;;;;;;4.53;2.97;;;;;;;19.81;65.23;101014.47;4990659;28;20239;-73
2022/06/24 01:56:53;;;;;;;3.17;2.87;;;;;;;19.77;65.35;101007.59;4994134;28;20654;-73
2022/06/24 01:59:19;;;;;;;4.43;3.10;;;;;;;19.75;65.35;101006.78;5027014;28;20286;-73
2022/06/24 02:01:44;;;;;;;4.43;2.97;;;;;;;19.78;65.45;101008.47;5012520;28;20215;-73
2022/06/24 02:04:10;;;;;;;5.53;3.80;;;;;;;19.71;65.41;101005.09;5009946;28;20171;-73
2022/06/24 02:06:36;;;;;;;4.47;3.20;;;;;;;19.76;65.29;101005.06;5009691;28;20187;-73
2022/06/24 02:09:01;;;;;;;3.27;2.97;;;;;;;19.72;65.40;101005.97;5008772;28;20688;-73
2022/06/24 02:14:13;;;;;;;3.67;3.10;;;;;;;19.67;65.48;100994.78;5008178;28;20202;-73
2022/06/24 02:16:39;;;;;;;5.03;3.20;;;;;;;19.67;65.57;100992.19;5010966;28;20183;-73
2022/06/24 02:19:05;;;;;;;4.60;3.03;;;;;;;19.65;65.78;100989.63;5009662;28;20253;-73
2022/06/24 02:21:31;;;;;;;3.63;2.93;;;;;;;19.66;65.74;100996.53;5011008;28;20628;-73
2022/06/24 02:23:56;;;;;;;5.43;3.17;;;;;;;19.64;65.73;100987.91;5009330;28;20186;-73
2022/06/24 02:26:22;;;;;;;6.60;3.40;;;;;;;19.61;65.68;100984.47;5009921;28;20244;-73
2022/06/24 02:28:48;;;;;;;3.73;3.00;;;;;;;19.57;66.21;100986.25;5014536;28;20205;-73
2022/06/24 02:31:14;;;;;;;4.40;3.00;;;;;;;19.57;66.29;100990.63;5027398;28;20179;-73
2022/06/24 02:33:39;;;;;;;4.13;3.17;;;;;;;19.54;66.21;100978.53;5029122;28;20206;-73
2022/06/24 02:36:06;;;;;;;4.43;2.93;;;;;;;19.54;66.21;100978.53;5029081;28;20183;-73
2022/06/24 02:38:32;;;;;;;3.93;3.13;;;;;;;19.55;66.18;100971.56;5029508;28;20193;-73
2022/06/24 02:40:58;;;;;;;3.80;3.23;;;;;;;19.55;66.35;100972.44;5027712;28;20194;-73
2022/06/24 02:43:27;;;;;;;6.30;3.10;;;;;;;19.53;66.10;100960.38;5025070;28;20204;-73
2022/06/24 02:46:02;;;;;;;3.10;2.80;;;;;;;19.53;66.09;100969.00;5014736;28;20233;-73
2022/06/24 02:48:29;;;;;;;3.60;3.00;;;;;;;19.50;66.24;100955.19;5010851;28;20254;-74
2022/06/24 02:51:00;;;;;;;3.20;2.93;;;;;;;19.49;66.27;100956.94;5012553;28;20240;-73
2022/06/24 02:53:26;;;;;;;3.60;3.30;;;;;;;19.50;66.63;100950.88;5012757;28;20215;-73
2022/06/24 02:55:54;;;;;;;4.83;3.40;;;;;;;19.47;66.32;100960.44;5013974;28;20189;-73
2022/06/24 02:58:20;;;;;;;5.77;3.40;;;;;;;19.48;66.32;100951.78;5015895;28;20571;-73
2022/06/24 03:00:46;;;;;;;3.20;2.90;;;;;;;19.48;65.94;100951.78;5013706;28;20252;-73
2022/06/24 03:03:14;;;;;;;4.70;3.10;;;;;;;19.47;66.51;100963.91;5014427;28;20202;-73
2022/06/24 03:05:41;;;;;;;3.27;2.97;;;;;;;19.42;66.52;100947.53;5029434;28;20189;-73
2022/06/24 03:08:07;;;;;;;3.53;3.20;;;;;;;19.45;66.30;100938.84;5032818;28;20241;-73
2022/06/24 03:10:34;;;;;;;3.77;3.27;;;;;;;19.46;66.32;100931.03;5032781;28;20190;-73
2022/06/24 03:12:59;;;;;;;3.57;2.73;;;;;;;19.47;66.37;100932.72;5028886;28;20225;-73
2022/06/24 03:15:25;;;;;;;3.33;2.77;;;;;;;19.44;66.62;100930.16;5012546;28;20561;-74
2022/06/24 03:17:50;;;;;;;3.17;2.90;;;;;;;19.45;66.32;100929.31;5012064;28;20193;-73
2022/06/24 03:20:16;;;;;;;3.20;2.90;;;;;;;19.47;66.17;100932.72;5012642;28;20570;-76
2022/06/24 03:22:42;;;;;;;3.37;3.07;;;;;;;19.48;66.31;100936.19;5011866;28;20207;-72
2022/06/24 03:25:08;;;;;;;3.57;3.10;;;;;;;19.48;66.43;100925.81;5011128;28;20283;-73
2022/06/24 03:27:35;;;;;;;4.47;3.07;;;;;;;19.48;66.25;100918.84;5018593;28;20656;-73
2022/06/24 03:30:00;;;;;;;5.63;3.20;;;;;;;19.49;66.40;100919.72;5029520;28;20265;-73
2022/06/24 03:32:26;;;;;;;6.80;3.10;;;;;;;19.50;66.34;100916.22;5032261;28;20226;-73
2022/06/24 03:34:51;;;;;;;2.87;2.60;;;;;;;19.48;66.77;100905.03;5019652;28;20184;-74
2022/06/24 03:37:17;;;;;;;3.87;3.50;;;;;;;19.52;66.63;100906.66;5023073;28;20252;-73
2022/06/24 03:39:43;;;;;;;3.37;2.70;;;;;;;19.53;66.27;100891.06;5013089;28;20191;-74
2022/06/24 03:42:08;;;;;;;6.03;3.13;;;;;;;19.55;66.17;100904.91;5009416;28;20214;-73
2022/06/24 03:44:33;;;;;;;5.23;3.10;;;;;;;19.57;65.97;100900.53;5020840;28;20182;-73
2022/06/24 03:47:01;;;;;;;4.07;3.43;;;;;;;19.58;66.25;100902.22;5032181;28;20659;-73
2022/06/24 03:49:27;;;;;;;3.70;3.03;;;;;;;19.58;66.33;100893.59;5017240;28;20673;-73
2022/06/24 03:51:52;;;;;;;3.90;3.20;;;;;;;19.60;66.51;100890.09;5011183;28;20206;-73
2022/06/24 03:54:18;;;;;;;3.60;2.97;;;;;;;19.60;66.49;100889.22;5010572;28;20261;-73
2022/06/24 03:56:43;;;;;;;3.97;2.97;;;;;;;19.64;66.09;100886.56;5008033;28;20336;-73
2022/06/24 03:59:09;;;;;;;3.23;2.93;;;;;;;19.65;66.55;100879.59;5017350;28;20289;-73
2022/06/24 04:01:34;;;;;;;4.13;3.00;;;;;;;19.67;66.02;100881.28;5031575;28;20570;-73
2022/06/24 04:04:00;;;;;;;4.30;3.17;;;;;;;19.72;66.02;100873.44;5017937;28;20191;-73
2022/06/24 04:06:25;;;;;;;3.40;2.83;;;;;;;19.73;66.06;100867.34;5012353;28;20187;-73
2022/06/24 04:08:52;;;;;;;3.43;3.13;;;;;;;19.76;66.21;100878.53;5012064;28;20183;-73
2022/06/24 04:11:18;;;;;;;5.33;3.27;;;;;;;19.79;66.03;100868.09;5011731;28;20692;-73
2022/06/24 04:13:44;;;;;;;4.33;3.30;;;;;;;19.80;65.73;100867.19;5012295;28;20230;-73
2022/06/24 04:16:10;;;;;;;3.57;3.27;;;;;;;19.83;66.23;100869.75;5007474;28;20182;-74
2022/06/24 04:18:36;;;;;;;4.53;3.23;;;;;;;19.86;66.15;100856.69;5030839;28;20290;-74
2022/06/24 04:21:02;;;;;;;3.70;3.37;;;;;;;19.90;65.70;100849.72;5031526;28;20720;-73
2022/06/24 04:23:28;;;;;;;3.83;3.53;;;;;;;19.94;65.96;100848.78;5030388;28;20244;-74
2022/06/24 04:25:54;;;;;;;4.37;3.40;;;;;;;19.98;65.65;100851.28;5030132;28;20676;-74
2022/06/24 04:28:19;;;;;;;3.93;3.17;;;;;;;20.02;65.93;100836.47;5031513;28;20214;-73
2022/06/24 04:30:45;;;;;;;4.17;3.20;;;;;;;20.06;65.70;100832.91;5031725;28;20205;-73
2022/06/24 04:33:11;;;;;;;3.80;3.40;;;;;;;20.09;65.59;100849.34;5030801;28;20218;-73
2022/06/24 04:35:36;;;;;;;6.43;3.50;;;;;;;20.15;65.53;100845.78;5031373;28;20281;-74
2022/06/24 04:38:02;;;;;;;4.20;3.80;;;;;;;20.21;65.27;100845.66;5031054;28;20285;-73
2022/06/24 04:40:28;;;;;;;5.13;2.93;;;;;;;20.24;64.90;100849.06;5031536;28;20202;-73
2022/06/24 04:42:54;;;;;;;8.07;3.70;;;;;;;20.31;64.66;100853.25;5030923;28;20214;-74
2022/06/24 04:45:19;;;;;;;5.43;3.77;;;;;;;20.33;64.86;100851.50;5031265;28;20183;-73
2022/06/24 04:47:45;;;;;;;4.73;3.30;;;;;;;20.40;64.12;100860.03;5031307;28;20178;-73
2022/06/24 04:50:10;;;;;;;6.20;3.43;;;;;;;20.45;65.33;100856.44;5030852;28;20734;-73
2022/06/24 04:52:38;;;;;;;5.70;3.60;;;;;;;20.50;64.77;100853.75;5018102;28;20223;-73
2022/06/24 04:55:05;;;;;;;4.23;3.60;;;;;;;20.51;64.51;100845.91;5010671;28;20203;-73
2022/06/24 04:57:30;;;;;;;4.53;3.60;;;;;;;20.56;64.15;100843.19;5009985;28;20568;-73
2022/06/24 04:59:56;;;;;;;4.77;3.73;;;;;;;20.60;63.78;100840.47;5010961;28;20195;-73
2022/06/24 05:02:22;;;;;;;4.57;3.87;;;;;;;20.68;63.82;100835.97;5010072;28;20203;-74
2022/06/24 05:04:47;;;;;;;6.00;3.80;;;;;;;20.77;64.04;100829.72;5009760;28;20175;-74
2022/06/24 05:07:13;;;;;;;4.53;3.77;;;;;;;20.82;63.57;100825.28;5005894;28;20720;-73
2022/06/24 05:09:38;;;;;;;4.90;3.53;;;;;;;20.80;64.23;100827.91;5019338;28;20518;-74
2022/06/24 05:12:04;;;;;;;5.77;4.07;;;;;;;20.71;63.55;100825.50;5004747;28;20241;-74
2022/06/24 05:14:30;;;;;;;5.07;3.50;;;;;;;20.83;63.57;100817.41;5029389;28;20611;-73
2022/06/24 05:16:57;;;;;;;4.93;3.77;;;;;;;20.83;63.75;100824.38;5030375;28;20195;-74
2022/06/24 05:19:22;;;;;;;4.90;4.00;;;;;;;20.85;63.23;100809.56;5029417;28;20194;-75
2022/06/24 05:21:48;;;;;;;3.77;3.43;;;;;;;20.85;63.28;100810.44;5029004;28;20306;-74
2022/06/24 05:24:13;;;;;;;4.93;3.50;;;;;;;20.86;63.10;100804.31;5030535;28;20190;-73
2022/06/24 05:26:42;;;;;;;4.50;3.77;;;;;;;21.02;63.11;100804.88;5030803;28;20277;-73
2022/06/24 05:29:08;;;;;;;6.63;4.00;;;;;;;21.07;63.02;100803.00;5029990;28;20189;-73
2022/06/24 05:31:34;;;;;;;5.13;3.77;;;;;;;21.17;62.25;100801.88;5030563;28;20202;-73
2022/06/24 05:33:59;;;;;;;6.97;4.03;;;;;;;21.26;62.00;100804.25;5028565;28;20217;-73
2022/06/24 05:36:25;;;;;;;6.03;3.43;;;;;;;21.27;62.18;100801.63;5030685;28;20179;-73
2022/06/24 05:38:51;;;;;;;5.97;3.80;;;;;;;21.51;61.01;100798.41;5028624;28;20193;-73
2022/06/24 05:41:17;;;;;;;5.60;3.87;;;;;;;21.59;61.48;100793.84;5030327;28;20195;-73
2022/06/24 05:43:46;;;;;;;5.13;3.93;;;;;;;21.75;60.69;100797.78;5028798;28;20664;-74
2022/06/24 05:46:12;;;;;;;7.63;4.03;;;;;;;21.54;61.56;100805.28;4980756;28;20715;-72
2022/06/24 05:48:38;;;;;;;8.27;3.73;;;;;;;21.85;61.49;100806.22;5007909;28;20664;-73
2022/06/24 05:51:22;;;;;;;13.67;4.40;;;;;;;21.92;60.57;100798.19;5007896;28;20266;-73
2022/06/24 05:56:32;;;;;;;6.40;3.73;;;;;;;22.11;60.37;100790.72;4995826;28;20204;-74
2022/06/24 05:58:59;;;;;;;6.70;3.87;;;;;;;22.30;60.15;100778.84;5009655;28;20183;-74
2022/06/24 06:01:25;;;;;;;4.30;3.90;;;;;;;22.38;59.55;100773.41;5008632;28;20771;-74
2022/06/24 06:03:51;;;;;;;5.33;3.80;;;;;;;22.35;60.34;100772.56;5009140;28;20496;-74
2022/06/24 06:06:17;;;;;;;5.33;4.10;;;;;;;22.50;59.04;100762.59;5020394;28;20201;-73
2022/06/24 06:08:43;;;;;;;7.87;3.97;;;;;;;22.41;58.72;100762.88;5028671;28;20185;-75
2022/06/24 06:11:14;;;;;;;4.63;3.60;;;;;;;22.43;59.25;100759.31;5044699;28;20625;-74
2022/06/24 06:13:41;;;;;;;5.10;4.20;;;;;;;22.58;59.60;100756.25;5028853;28;20225;-74
2022/06/24 06:16:06;;;;;;;4.47;3.90;;;;;;;22.81;57.79;100763.38;5029440;28;20202;-74
2022/06/24 06:18:32;;;;;;;7.07;3.97;;;;;;;23.09;57.16;100759.81;5011014;28;20197;-74
2022/06/24 06:21:02;;;;;;;4.30;3.87;;;;;;;23.26;56.61;100756.69;5009413;28;20187;-73
2022/06/24 06:23:30;;;;;;;5.97;4.03;;;;;;;23.19;56.32;100758.63;5008940;28;20241;-73
2022/06/24 06:25:56;;;;;;;4.97;3.97;;;;;;;23.32;55.94;100756.47;5008066;28;20223;-74
2022/06/24 06:28:22;;;;;;;5.97;4.10;;;;;;;23.50;55.61;100748.84;5024619;28;20190;-74
2022/06/24 06:30:47;;;;;;;4.90;3.77;;;;;;;23.85;55.69;100755.44;5008764;28;20179;-73
2022/06/24 06:33:13;;;;;;;5.97;3.77;;;;;;;23.86;54.91;100747.56;5008492;28;20285;-73
2022/06/24 06:35:39;;;;;;;5.13;3.23;;;;;;;23.84;55.73;100745.91;5007304;28;20239;-74
2022/06/24 06:38:05;;;;;;;6.43;4.17;;;;;;;23.97;54.93;100755.88;5010072;28;20294;-73
2022/06/24 06:40:34;;;;;;;4.20;3.80;;;;;;;24.14;54.04;100753.50;5009095;28;20635;-73
2022/06/24 06:43:00;;;;;;;6.60;4.20;;;;;;;23.81;55.20;100746.84;5009399;28;20226;-74
2022/06/24 06:45:27;;;;;;;5.93;3.83;;;;;;;23.98;54.16;100748.91;5009200;28;20798;-74
2022/06/24 06:47:53;;;;;;;6.30;4.07;;;;;;;24.15;54.90;100743.88;5009012;28;20183;-73
2022/06/24 06:50:18;;;;;;;4.07;3.77;;;;;;;24.58;53.85;100741.34;5009325;28;20237;-72
2022/06/24 06:52:44;;;;;;;5.50;3.80;;;;;;;24.67;52.93;100741.84;5008776;28;20305;-74
2022/06/24 06:55:09;;;;;;;9.33;4.27;;;;;;;24.79;53.51;100762.31;5008545;28;20260;-74
2022/06/24 06:57:35;;;;;;;4.63;4.23;;;;;;;24.48;54.41;100774.88;4991761;28;20627;-74
2022/06/24 07:00:01;;;;;;;6.13;3.80;;;;;;;24.64;54.38;100785.66;5008478;28;20276;-73
2022/06/24 07:02:26;;;;;;;5.60;4.00;;;;;;;24.47;54.48;100785.41;5009111;28;20305;-74
2022/06/24 07:04:51;;;;;;;6.33;3.90;;;;;;;24.24;55.11;100786.28;5007077;28;20215;-74
2022/06/24 07:07:17;;;;;;;8.43;4.23;;;;;;;24.98;53.46;100765.91;5009223;28;20225;-74
2022/06/24 07:09:43;;;;;;;5.38;3.80;;;;;;;25.30;52.19;100769.84;5008166;28;20253;-75
2022/06/24 07:12:08;;;;;;;4.22;3.80;;;;;;;25.61;51.35;100763.25;5007215;28;20229;-74
2022/06/24 07:14:34;;;;;;;4.38;3.97;;;;;;;25.70;51.02;100761.97;5008137;28;20309;-74
2022/06/24 07:16:59;;;;;;;5.70;3.95;;;;;;;25.89;50.19;100760.25;5007107;28;20198;-74
2022/06/24 07:19:25;;;;;;;4.82;3.88;;;;;;;25.90;50.81;100769.81;5008241;28;20187;-73
2022/06/24 07:21:50;;;;;;;8.07;4.28;;;;;;;25.75;50.56;100757.38;4994165;28;20336;-73
2022/06/24 07:24:15;;;;;;;8.60;4.40;;;;;;;26.01;50.44;100752.69;5006142;28;20675;-73
2022/06/24 07:26:41;;;;;;;4.75;3.72;;;;;;;26.33;49.02;100746.00;5008435;28;20825;-73
2022/06/24 07:29:07;;;;;;;7.60;3.95;;;;;;;26.48;49.09;100743.47;5008089;28;20231;-73
2022/06/24 07:31:32;;;;;;;4.30;4.00;;;;;;;26.91;48.44;100737.03;5008623;28;20243;-73
2022/06/24 07:33:58;;;;;;;5.70;3.80;;;;;;;27.12;47.82;100735.97;5007971;28;20226;-73
2022/06/24 07:36:23;;;;;;;5.38;3.85;;;;;;;26.77;47.34;100736.84;5006601;28;20203;-73
2022/06/24 07:38:49;;;;;;;4.80;3.70;;;;;;;26.91;47.05;100732.63;5000535;28;20218;-73
2022/06/24 07:41:14;;;;;;;8.15;4.13;;;;;;;26.81;47.34;100731.38;5012237;28;20236;-73
2022/06/24 07:43:40;;;;;;;8.52;4.22;;;;;;;26.79;47.60;100730.59;5012253;28;20202;-73
2022/06/24 07:46:08;;;;;;;6.38;4.00;;;;;;;26.63;48.39;100727.03;5011557;28;20598;-73
2022/06/24 07:48:35;;;;;;;8.23;3.80;;;;;;;26.47;48.68;100723.38;5010143;28;20252;-73
2022/06/24 07:51:16;;;;;;;4.10;3.70;;;;;;;26.50;47.30;100723.25;4998733;28;20192;-73
2022/06/24 07:53:44;;;;;;;6.38;3.60;;;;;;;26.46;47.20;100726.94;5012403;28;20210;-74
2022/06/24 07:58:54;;;;;;;5.97;3.58;;;;;;;26.95;46.02;100717.56;4993276;28;20195;-73
2022/06/24 08:01:19;;;;;;;5.10;3.92;;;;;;;27.45;45.20;100708.81;5007887;28;20192;-74
2022/06/24 08:03:44;;;;;;;5.88;3.58;;;;;;;27.46;42.74;100712.31;4992796;28;20583;-73
2022/06/24 08:06:10;;;;;;;5.10;3.42;;;;;;;27.41;42.92;100712.56;4992741;28;20529;-73
2022/06/24 08:08:36;;;;;;;5.82;3.25;;;;;;;27.74;43.48;100699.41;4992015;28;20594;-73
2022/06/24 08:11:02;;;;;;;4.50;3.90;;;;;;;27.80;43.52;100691.19;4992666;28;20658;-73
2022/06/24 08:13:29;;;;;;;3.72;3.42;;;;;;;27.94;41.77;100693.94;4991816;28;20210;-73
2022/06/24 08:15:55;;;;;;;4.93;3.97;;;;;;;28.01;41.46;100685.63;4992352;28;20196;-73
2022/06/24 08:18:20;;;;;;;4.10;3.67;;;;;;;28.22;41.86;100678.31;4992458;28;20194;-73
2022/06/24 08:20:46;;;;;;;3.83;3.42;;;;;;;28.37;41.32;100677.47;4990668;28;20286;-73
2022/06/24 08:23:11;;;;;;;4.00;3.70;;;;;;;28.26;40.69;100678.06;4992151;28;20216;-73
2022/06/24 08:25:36;;;;;;;4.80;3.60;;;;;;;28.58;41.85;100677.13;4983100;28;20239;-74
2022/06/24 08:28:02;;;;;;;4.38;3.97;;;;;;;28.80;41.62;100671.47;4990782;28;20199;-73
2022/06/24 08:30:28;;;;;;;4.18;3.78;;;;;;;29.09;41.49;100665.34;4991667;28;20207;-73
2022/06/24 08:32:53;;;;;;;4.97;4.25;;;;;;;29.10;40.26;100667.06;4992180;28;20215;-73
2022/06/24 08:35:19;;;;;;;4.57;3.80;;;;;;;29.20;39.66;100649.75;4991902;28;20207;-73
2022/06/24 08:37:45;;;;;;;4.78;4.05;;;;;;;29.45;40.08;100640.25;5000137;28;20191;-73
2022/06/24 08:40:11;;;;;;;6.25;4.00;;;;;;;29.69;39.12;100638.75;5011547;28;20191;-74
2022/06/24 08:42:38;;;;;;;6.50;4.05;;;;;;;29.67;38.60;100631.88;5010789;28;20765;-73
2022/06/24 08:45:05;;;;;;;4.18;3.78;;;;;;;29.51;39.46;100631.94;5021052;28;20562;-73
2022/06/24 08:47:31;;;;;;;6.40;4.43;;;;;;;29.83;40.24;100624.66;5012890;28;20189;-74
2022/06/24 08:49:56;;;;;;;7.65;4.57;;;;;;;30.07;38.70;100610.75;5031197;28;20190;-73
2022/06/24 08:52:22;;;;;;;10.45;4.32;;;;;;;30.40;38.96;100615.69;5030992;28;20210;-73
2022/06/24 08:54:49;;;;;;;4.88;3.92;;;;;;;30.69;39.09;100614.63;5021302;28;20202;-73
2022/06/24 08:57:15;;;;;;;14.43;4.38;;;;;;;30.67;37.33;100608.59;5011120;28;20195;-73
2022/06/24 08:59:45;;;;;;;4.93;4.05;;;;;;;30.69;38.05;100596.09;5010888;28;20194;-74
2022/06/24 09:02:14;;;;;;;5.15;3.60;;;;;;;30.95;38.68;100602.28;5011476;28;20202;-73
2022/06/24 09:04:45;;;;;;;7.20;4.40;;;;;;;31.17;37.13;100591.91;5010634;28;20188;-73
2022/06/24 09:07:36;;;;;;;8.70;4.05;;;;;;;31.09;36.82;100592.44;5009764;28;20187;-72
2022/06/24 09:10:10;;;;;;;8.75;3.92;;;;;;;30.89;37.57;100586.81;5012496;28;20209;-73
2022/06/24 09:12:43;;;;;;;5.55;4.10;;;;;;;31.08;37.50;100577.50;5011383;28;20720;-73
2022/06/24 09:15:11;;;;;;;4.40;4.00;;;;;;;31.50;37.85;100584.28;5011004;28;20207;-73
2022/06/24 09:17:37;;;;;;;7.30;4.20;;;;;;;31.54;36.87;100580.47;5010599;28;20221;-73
2022/06/24 09:20:15;;;;;;;5.40;4.05;;;;;;;31.90;37.41;100578.69;5011040;28;20190;-73
2022/06/24 09:22:40;;;;;;;6.20;4.10;;;;;;;31.81;37.06;100579.34;5010167;28;20271;-74
2022/06/24 09:25:07;;;;;;;8.13;4.03;;;;;;;32.04;36.71;100578.53;5009687;28;20195;-73
2022/06/24 09:27:34;;;;;;;5.88;4.38;;;;;;;32.12;36.88;100568.19;5010298;28;20186;-73
2022/06/24 09:29:59;;;;;;;6.30;4.63;;;;;;;32.18;37.07;100573.03;5011021;28;20183;-73
2022/06/24 09:32:25;;;;;;;6.38;4.57;;;;;;;32.41;35.64;100563.44;5010355;28;20206;-73
2022/06/24 09:35:03;;;;;;;4.65;3.95;;;;;;;32.33;35.92;100569.31;5010242;28;20218;-73
2022/06/24 09:37:41;;;;;;;5.18;4.13;;;;;;;32.28;34.92;100573.25;5010513;28;20175;-73
2022/06/24 09:40:26;;;;;;;4.47;4.07;;;;;;;32.50;35.59;100557.44;5012571;28;20195;-72
2022/06/24 09:43:00;;;;;;;4.22;3.80;;;;;;;32.34;35.49;100559.53;5016481;28;20238;-73
2022/06/24 09:45:41;;;;;;;6.70;4.25;;;;;;;32.31;34.59;100565.09;5024444;28;20186;-73
2022/06/24 09:48:07;;;;;;;4.25;3.75;;;;;;;32.17;35.45;100558.09;5015491;28;20317;-73
2022/06/24 09:50:33;;;;;;;8.30;4.00;;;;;;;32.44;34.27;100563.19;5029875;28;20183;-73
2022/06/24 09:53:01;;;;;;;8.27;4.10;;;;;;;32.33;35.11;100564.00;5029819;28;20210;-73
2022/06/24 09:55:28;;;;;;;5.50;3.92;;;;;;;32.46;33.79;100555.97;5015334;28;20233;-73
2022/06/24 09:57:54;;;;;;;6.80;3.83;;;;;;;32.94;34.03;100549.56;5009574;28;20266;-73
2022/06/24 10:03:07;;;;;;;6.72;4.15;;;;;;;32.55;34.56;100563.22;5009923;28;20249;-73
2022/06/24 10:05:35;;;;;;;11.27;4.30;;;;;;;32.69;33.92;100563.03;5009770;28;20186;-73
2022/06/24 10:08:03;;;;;;;7.65;3.88;;;;;;;32.88;33.90;100566.84;5009549;28;20258;-73
2022/06/24 10:10:32;;;;;;;9.50;4.07;;;;;;;33.13;33.76;100556.00;5010022;28;20182;-74
2022/06/24 10:13:04;;;;;;;5.53;3.85;;;;;;;33.25;33.33;100559.50;5009796;28;20583;-73
2022/06/24 10:15:30;;;;;;;4.30;3.90;;;;;;;32.67;33.77;100559.63;5009233;28;20676;-73
2022/06/24 10:17:57;;;;;;;5.43;3.67;;;;;;;32.72;34.20;100563.63;5010036;28;20266;-74
2022/06/24 10:20:23;;;;;;;5.65;4.10;;;;;;;33.22;34.28;100555.28;5009518;28;20201;-73
2022/06/24 10:22:54;;;;;;;5.80;3.90;;;;;;;33.53;33.41;100551.91;5008308;28;20215;-73
2022/06/24 10:25:48;;;;;;;5.07;4.03;;;;;;;33.33;32.67;100544.66;5009693;28;20206;-73
2022/06/24 10:28:13;;;;;;;7.13;4.10;;;;;;;33.49;32.92;100550.47;5010064;28;20194;-72
2022/06/24 10:30:39;;;;;;;5.00;4.30;;;;;;;33.43;33.13;100547.47;5009334;28;20171;-73
2022/06/24 10:33:16;;;;;;;5.18;4.68;;;;;;;32.83;33.96;100552.22;5009419;28;20206;-74
2022/06/24 10:36:04;;;;;;;4.90;4.50;;;;;;;32.42;34.69;100549.19;5009397;28;20356;-73
2022/06/24 10:38:42;;;;;;;4.95;4.45;;;;;;;32.64;33.87;100547.44;5009304;28;20191;-72
2022/06/24 10:41:11;;;;;;;5.18;4.50;;;;;;;33.23;34.00;100542.81;5009413;28;20660;-73
2022/06/24 10:43:41;;;;;;;5.72;4.50;;;;;;;32.43;35.40;100553.53;5009013;28;20226;-72
2022/06/24 10:46:13;;;;;;;5.68;4.63;;;;;;;32.41;34.31;100548.34;4989827;28;20242;-73
2022/06/24 10:48:59;;;;;;;4.80;4.22;;;;;;;33.30;34.17;100546.72;4976013;28;20235;-73
2022/06/24 10:51:28;;;;;;;5.72;4.40;;;;;;;33.53;32.99;100541.28;4989688;28;20223;-73
2022/06/24 10:54:03;;;;;;;4.88;4.35;;;;;;;33.08;34.37;100547.56;4996523;28;20214;-72
2022/06/24 10:56:47;;;;;;;5.13;4.47;;;;;;;32.66;35.84;100537.56;5003891;28;21071;-73
2022/06/24 10:59:19;;;;;;;5.57;4.40;;;;;;;32.91;33.80;100528.59;5001559;28;20253;-73
2022/06/24 11:01:50;;;;;;;5.05;4.60;;;;;;;32.60;33.89;100522.09;4998781;28;20270;-72
2022/06/24 11:04:30;;;;;;;5.18;4.75;;;;;;;32.77;35.38;100524.31;5005968;28;20219;-73
2022/06/24 11:07:11;;;;;;;5.40;4.90;;;;;;;32.93;35.20;100510.72;5000775;28;20241;-73
2022/06/24 11:09:37;;;;;;;5.00;4.65;;;;;;;33.17;35.34;100516.75;4989775;28;20380;-72
2022/06/24 11:12:27;;;;;;;6.00;4.47;;;;;;;32.71;34.02;100508.00;4995110;28;20195;-73
2022/06/24 11:14:53;;;;;;;5.00;4.57;;;;;;;33.03;34.16;100501.94;5009529;28;20211;-73
2022/06/24 11:17:25;;;;;;;5.65;4.97;;;;;;;33.42;34.58;100493.47;5009202;28;20194;-73
2022/06/24 11:19:52;;;;;;;5.43;4.90;;;;;;;33.49;34.93;100488.50;5012835;28;20179;-73
2022/06/24 11:22:19;;;;;;;5.30;4.80;;;;;;;33.64;34.33;100493.41;5012458;28;20276;-73
2022/06/24 11:24:47;;;;;;;5.72;5.00;;;;;;;33.37;33.02;100492.16;5011455;28;20197;-73
2022/06/24 11:27:13;;;;;;;6.45;4.70;;;;;;;33.54;33.66;100488.97;5012866;28;20190;-73
2022/06/24 11:29:56;;;;;;;5.50;5.00;;;;;;;33.03;33.58;100487.78;5012311;28;20195;-73
2022/06/24 11:32:22;;;;;;;6.57;4.65;;;;;;;32.76;32.79;100479.31;5008550;28;20218;-72
2022/06/24 11:34:48;;;;;;;6.28;4.68;;;;;;;32.27;32.83;100478.72;5012117;28;20207;-72
2022/06/24 11:37:19;;;;;;;5.05;4.20;;;;;;;32.99;32.33;100481.91;5012850;28;20198;-73